Home   Weather   India   Gurgaon   Past weeks
Flag for India

Past Weather in Gurgaon, Haryana, India — Yesterday and Last 2 Weeks

Currently: 106 °F. Haze. (Weather station: New Delhi Palam Airport, India). See more current weather

Past Weather in Gurgaon — Graph

°F

Gurgaon Temperature Yesterday

Maximum temperature yesterday: 111 °F (at 3:30 pm)
Minimum temperature yesterday: 86 °F (at 6:00 am)
Average temperature yesterday: 100 °F

High & Low Weather Summary for the Past Weeks

 TemperatureHumidityPressure
High115 °F (May 29, 3:00 pm)58% (Jun 5, 11:30 pm)29.83 "Hg (Jun 5, 11:30 pm)
Low81 °F (Jun 6, 12:30 am)5% (May 30, 5:00 pm)29.33 "Hg (May 28, 7:00 pm)
Average99 °F24%29.58 "Hg
* Reported May 28 7:00 pm — Jun 12 6:30 pm, Gurgaon. Weather by CustomWeather, © 2024

Note: Actual official high and low records may vary slightly from our data, if they occured in-between our weather recording intervals... More about our weather records

Gurgaon Weather History for the Previous 24 Hours

Scroll right to see more
 ConditionsComfort  
Time TempWeatherWind HumidityBarometerVisibility
6:30 pm
Wed, Jun 12
106 °FHaze.7 mph13%29.50 "Hg3 mi
6:00 pm108 °FPassing clouds.9 mph12%29.50 "Hg4 mi
5:30 pm109 °FPassing clouds.9 mph11%29.50 "Hg4 mi
4:30 pm111 °FPassing clouds.10 mph10%29.50 "Hg4 mi
4:00 pm111 °FPassing clouds.7 mph10%29.50 "Hg4 mi
3:30 pm111 °FPassing clouds.8 mph10%29.53 "Hg4 mi
3:00 pm111 °FPassing clouds.7 mph10%29.53 "Hg4 mi
2:30 pm111 °FPassing clouds.7 mph11%29.56 "Hg4 mi
1:30 pm109 °FPassing clouds.7 mph11%29.59 "Hg4 mi
1:00 pm109 °FPassing clouds.10 mph13%29.59 "Hg4 mi
12:30 pm108 °FClear.8 mph15%29.59 "Hg4 mi
12:00 pm108 °FClear.7 mph15%29.62 "Hg4 mi
11:30 am106 °FClear.9 mph17%29.62 "Hg4 mi
11:00 am104 °FPassing clouds.9 mph19%29.62 "Hg4 mi
10:30 am104 °FPassing clouds.10 mph23%29.65 "Hg4 mi
10:00 am100 °FPassing clouds.9 mph25%29.65 "Hg4 mi
9:30 am99 °FPassing clouds.9 mph27%29.65 "Hg4 mi
9:00 am97 °FHaze.12 mph28%29.65 "Hg3 mi
8:30 am95 °FHaze.8 mph32%29.65 "Hg3 mi
7:30 am91 °FHaze.7 mph30%29.62 "Hg2 mi
6:30 am90 °FHaze.6 mph29%29.62 "Hg2 mi
6:00 am90 °FHaze.6 mph27%29.59 "Hg2 mi
5:30 am90 °FHaze.5 mph29%29.59 "Hg2 mi
5:00 am88 °FHaze.3 mph33%29.56 "Hg2 mi
4:30 am90 °FHaze.3 mph31%29.56 "Hg2 mi
4:00 am90 °FHaze.3 mph31%29.56 "Hg2 mi
3:30 am91 °FHaze.No wind30%29.53 "Hg2 mi
3:00 am91 °FHaze.No wind28%29.53 "Hg2 mi
2:30 am91 °FHaze.No wind26%29.56 "Hg2 mi
2:00 am93 °FHaze.2 mph24%29.56 "Hg2 mi
12:30 am95 °FHaze.2 mph22%29.56 "Hg2 mi
12:00 am95 °FHaze.1 mph23%29.56 "Hg2 mi
11:30 pm
Tue, Jun 11
97 °FHaze.1 mph20%29.56 "Hg2 mi
10:30 pm99 °FHaze.2 mph17%29.56 "Hg2 mi
10:00 pm100 °FHaze.2 mph16%29.56 "Hg2 mi
9:30 pm102 °FHaze.2 mph14%29.53 "Hg2 mi
9:00 pm102 °FHaze.2 mph12%29.53 "Hg3 mi
8:30 pm104 °FHaze.5 mph12%29.53 "Hg3 mi
8:00 pm104 °FHaze.6 mph12%29.53 "Hg3 mi
Weather by CustomWeather, © 2024

See weather overview